Time;durP1;ratioP1;P1;durP2;ratioP2;P2;SDS_P1;SDS_P2;PMS_P1;PMS_P2;Temp;Humidity;BMP_temperature;BMP_pressure;BME280_temperature;BME280_humidity;BME280_pressure;Samples;Min_cycle;Max_cycle;Signal;HPM_P1;HPM_P2
2023/01/30 00:00:30;;;;;;;5.03;4.22;;;;;;;0.38;100.00;99091.34;4936654;29;20055;-71
2023/01/30 00:02:56;;;;;;;5.57;3.70;;;;;;;0.44;100.00;99101.25;4936603;29;20027;-70
2023/01/30 00:05:21;;;;;;;5.93;4.63;;;;;;;0.36;100.00;99075.75;4936658;29;20314;-70
2023/01/30 00:07:47;;;;;;;10.60;6.93;;;;;;;0.25;100.00;99058.38;4919214;29;20031;-71
2023/01/30 00:10:13;;;;;;;4.47;3.93;;;;;;;0.26;100.00;99054.78;4921312;29;20333;-72
2023/01/30 00:12:38;;;;;;;4.83;3.97;;;;;;;0.42;100.00;99058.66;4938196;29;20472;-72
2023/01/30 00:15:05;;;;;;;7.33;5.00;;;;;;;0.41;100.00;99044.72;4920764;29;20035;-71
2023/01/30 00:17:30;;;;;;;5.03;4.40;;;;;;;0.42;100.00;99042.94;4937351;29;20053;-70
2023/01/30 00:19:56;;;;;;;6.03;5.43;;;;;;;0.42;100.00;99032.47;4938220;29;20324;-72
2023/01/30 00:22:21;;;;;;;6.97;5.33;;;;;;;0.02;100.00;98978.50;4918837;29;20464;-71
2023/01/30 00:24:47;;;;;;;6.20;4.57;;;;;;;0.37;100.00;99024.22;4937527;29;20030;-72
2023/01/30 00:27:12;;;;;;;5.83;4.40;;;;;;;0.34;100.00;99011.41;4935623;29;20051;-72
2023/01/30 00:29:38;;;;;;;5.63;3.97;;;;;;;0.34;100.00;99008.78;4935551;29;20487;-72
2023/01/30 00:32:03;;;;;;;6.07;4.63;;;;;;;0.30;100.00;98997.78;4935584;29;20024;-71
2023/01/30 00:34:29;;;;;;;8.03;4.70;;;;;;;0.24;100.00;98987.81;4935126;29;20053;-73
2023/01/30 00:36:54;;;;;;;5.57;4.77;;;;;;;0.19;100.00;98972.56;4935444;29;20531;-73
2023/01/30 00:39:19;;;;;;;7.00;4.77;;;;;;;0.20;100.00;98976.00;4935081;29;20031;-72
2023/01/30 00:47:13;;;;;;;4.13;3.73;;;;;;;0.06;100.00;98958.13;4935109;29;20640;-73
2023/01/30 00:49:39;;;;;;;5.80;4.20;;;;;;;0.05;100.00;98949.44;4934824;29;20278;-73
2023/01/30 00:52:04;;;;;;;3.97;3.53;;;;;;;0.06;100.00;98938.00;4935025;29;20455;-72
2023/01/30 00:54:31;;;;;;;6.00;4.50;;;;;;;0.08;100.00;98922.97;4935406;29;20028;-75
2023/01/30 00:56:56;;;;;;;4.67;4.17;;;;;;;0.07;100.00;98921.34;4902560;29;20039;-71
2023/01/30 00:59:26;;;;;;;6.53;4.47;;;;;;;0.06;100.00;98917.06;4939276;29;20267;-73
2023/01/30 01:01:52;;;;;;;6.13;5.27;;;;;;;0.09;100.00;98906.31;4938862;29;20067;-70
2023/01/30 01:04:17;;;;;;;4.27;3.73;;;;;;;0.10;100.00;98896.66;4938649;29;20306;-72
2023/01/30 01:06:42;;;;;;;4.47;3.67;;;;;;;0.11;100.00;98893.91;4938659;29;20031;-70
2023/01/30 01:09:08;;;;;;;7.10;4.87;;;;;;;0.10;100.00;98881.78;4905765;29;20031;-73
2023/01/30 01:11:34;;;;;;;6.37;4.17;;;;;;;0.06;100.00;98869.97;4921774;29;20361;-72
2023/01/30 01:14:01;;;;;;;4.17;3.77;;;;;;;0.10;100.00;98860.84;4938706;29;20118;-74
2023/01/30 01:16:28;;;;;;;5.20;3.70;;;;;;;0.09;100.00;98856.59;4938521;29;20264;-72
2023/01/30 01:18:54;;;;;;;4.47;3.50;;;;;;;0.04;100.00;98840.50;4938157;29;20620;-73
2023/01/30 01:21:21;;;;;;;4.87;3.90;;;;;;;0.07;100.00;98844.59;4939537;29;20267;-72
2023/01/30 01:23:51;;;;;;;3.43;3.13;;;;;;;0.00;100.00;98844.34;4939480;29;20487;-72
2023/01/30 01:26:17;;;;;;;4.40;3.50;;;;;;;-0.10;100.00;98814.75;4938382;29;20263;-73
2023/01/30 01:28:42;;;;;;;4.60;3.77;;;;;;;0.08;100.00;98817.47;4938035;29;20295;-73
2023/01/30 01:31:09;;;;;;;5.73;3.93;;;;;;;0.06;100.00;98801.09;4938396;29;20031;-73
2023/01/30 01:33:35;;;;;;;6.30;3.43;;;;;;;0.04;100.00;98803.84;4938129;29;20027;-72
2023/01/30 01:36:00;;;;;;;4.40;3.47;;;;;;;0.05;100.00;98795.03;4939562;29;20754;-73
2023/01/30 01:38:26;;;;;;;5.97;4.27;;;;;;;0.03;100.00;98781.25;4942254;29;20031;-70
2023/01/30 01:41:01;;;;;;;5.50;3.93;;;;;;;0.08;100.00;98780.81;4924579;29;20473;-71
2023/01/30 01:43:29;;;;;;;4.33;3.83;;;;;;;0.06;100.00;98773.13;4938353;29;20078;-74
2023/01/30 01:46:05;;;;;;;4.55;3.35;;;;;;;0.06;100.00;98765.25;4938950;29;20263;-74
2023/01/30 01:48:39;;;;;;;3.17;2.85;;;;;;;0.06;100.00;98757.41;4938282;29;20062;-72
2023/01/30 01:51:09;;;;;;;4.90;2.77;;;;;;;0.01;100.00;98746.56;4938008;29;20039;-71
2023/01/30 01:53:44;;;;;;;4.00;3.30;;;;;;;0.09;100.00;98754.50;4937668;29;20762;-72
2023/01/30 01:56:13;;;;;;;3.50;3.13;;;;;;;0.02;100.00;98734.31;4937917;29;20272;-72
2023/01/30 01:58:48;;;;;;;3.10;2.80;;;;;;;0.13;100.00;98745.38;4937852;29;20382;-73
2023/01/30 02:01:14;;;;;;;3.23;2.93;;;;;;;0.11;100.00;98731.63;4950062;29;20087;-71
2023/01/30 02:03:46;;;;;;;3.70;2.77;;;;;;;0.14;100.00;98718.25;4949376;29;20263;-73
2023/01/30 02:06:13;;;;;;;4.20;3.77;;;;;;;0.12;100.00;98704.47;4949655;29;20263;-73
2023/01/30 02:08:46;;;;;;;4.03;3.00;;;;;;;0.14;100.00;98709.56;4949407;29;20767;-70
2023/01/30 02:11:29;;;;;;;3.37;3.07;;;;;;;0.08;100.00;98697.91;4948891;29;20323;-71
2023/01/30 02:13:56;;;;;;;3.30;3.00;;;;;;;0.06;100.00;98685.94;4937862;29;20740;-74
2023/01/30 02:16:22;;;;;;;3.50;3.20;;;;;;;0.00;100.00;98697.81;4937189;29;20267;-73
2023/01/30 02:18:48;;;;;;;3.60;3.13;;;;;;;-0.12;100.00;98659.72;4937826;29;20266;-73
2023/01/30 02:21:56;;;;;;;3.80;2.57;;;;;;;-0.11;100.00;98663.97;4937458;29;20035;-73
2023/01/30 02:24:54;;;;;;;3.97;3.23;;;;;;;-0.12;100.00;98651.84;4929990;29;20315;-73
2023/01/30 02:27:29;;;;;;;3.05;2.75;;;;;;;-0.13;100.00;98639.75;4937898;29;20287;-74
2023/01/30 02:30:21;;;;;;;3.70;3.20;;;;;;;-0.14;100.00;98630.25;4937068;29;20476;-72
2023/01/30 02:32:54;;;;;;;3.30;2.83;;;;;;;-0.16;100.00;98616.50;4937229;29;20326;-71
2023/01/30 02:35:37;;;;;;;4.87;2.93;;;;;;;-0.16;100.00;98592.97;4937480;29;20263;-75
2023/01/30 02:38:26;;;;;;;3.43;3.13;;;;;;;-0.15;100.00;98599.84;4937805;29;20263;-71
2023/01/30 02:40:57;;;;;;;3.10;2.80;;;;;;;-0.17;100.00;98591.31;4906472;29;20302;-72
2023/01/30 02:43:33;;;;;;;3.57;2.70;;;;;;;-0.19;100.00;98577.56;4938853;29;20568;-74
2023/01/30 02:46:08;;;;;;;3.33;2.90;;;;;;;-0.20;100.00;98565.44;4938257;29;20303;-72
2023/01/30 02:48:41;;;;;;;3.17;2.70;;;;;;;-0.21;100.00;98550.72;4936901;29;20402;-73
2023/01/30 02:51:18;;;;;;;5.80;4.27;;;;;;;-0.20;100.00;98549.75;4936517;29;20564;-73
2023/01/30 02:53:46;;;;;;;3.30;3.00;;;;;;;-0.22;100.00;98522.91;4936442;29;20263;-72
2023/01/30 02:56:12;;;;;;;4.82;2.75;;;;;;;-0.19;100.00;98520.81;4936835;29;20260;-72
2023/01/30 02:58:51;;;;;;;3.20;2.90;;;;;;;-0.17;100.00;98507.59;4936708;29;20058;-73
2023/01/30 03:01:46;;;;;;;3.57;3.00;;;;;;;-0.21;100.00;98495.78;4936648;29;20043;-70
2023/01/30 03:04:27;;;;;;;3.27;2.80;;;;;;;-0.24;100.00;98493.47;4928434;29;20260;-74
2023/01/30 03:07:09;;;;;;;3.40;3.03;;;;;;;-0.20;100.00;98481.75;4919246;29;20267;-73
2023/01/30 03:09:48;;;;;;;3.17;2.87;;;;;;;-0.18;100.00;98472.78;4937437;29;20731;-72
2023/01/30 03:12:26;;;;;;;4.63;4.22;;;;;;;-0.18;100.00;98472.78;4937798;29;20259;-75
2023/01/30 03:14:56;;;;;;;3.53;3.00;;;;;;;-0.23;100.00;98456.72;4937394;29;20035;-71
2023/01/30 03:17:25;;;;;;;3.03;2.70;;;;;;;-0.23;100.00;98445.41;4937051;29;20267;-75
2023/01/30 03:19:52;;;;;;;4.00;3.20;;;;;;;-0.17;100.00;98450.03;4939320;29;20358;-74
2023/01/30 03:22:19;;;;;;;3.20;2.90;;;;;;;-0.22;100.00;98437.44;4944086;29;20268;-72
2023/01/30 03:24:45;;;;;;;3.90;2.50;;;;;;;-0.16;100.00;98439.44;4937505;29;20264;-72
2023/01/30 03:27:12;;;;;;;2.77;2.47;;;;;;;-0.08;100.00;98422.97;4919267;29;20279;-73
2023/01/30 03:29:38;;;;;;;3.23;2.67;;;;;;;-0.08;100.00;98417.72;4936777;29;20119;-73
2023/01/30 03:32:04;;;;;;;4.17;2.50;;;;;;;-0.03;100.00;98405.00;4936756;29;20262;-73
2023/01/30 03:34:30;;;;;;;3.37;2.43;;;;;;;-0.03;100.00;98413.69;4936149;29;20260;-72
2023/01/30 03:36:56;;;;;;;2.80;2.50;;;;;;;-0.04;100.00;98398.13;4936547;29;20315;-74
2023/01/30 03:39:25;;;;;;;3.47;3.00;;;;;;;-0.01;100.00;98403.88;4919847;29;20379;-72
2023/01/30 03:41:52;;;;;;;4.20;2.50;;;;;;;-0.01;100.00;98403.06;4936538;29;20035;-75
2023/01/30 03:44:18;;;;;;;2.57;2.37;;;;;;;-0.01;100.00;98392.59;4936855;29;20263;-74
2023/01/30 03:46:43;;;;;;;2.47;2.27;;;;;;;-0.09;100.00;98379.47;4936780;29;20263;-77
2023/01/30 03:49:09;;;;;;;2.77;2.33;;;;;;;-0.02;100.00;98377.88;4936381;29;20439;-74
2023/01/30 03:51:34;;;;;;;3.07;2.30;;;;;;;-0.07;100.00;98369.66;4936007;29;20106;-74
2023/01/30 03:54:00;;;;;;;3.10;2.23;;;;;;;-0.03;100.00;98368.38;4935374;29;20034;-71
2023/01/30 03:56:25;;;;;;;2.33;2.13;;;;;;;-0.08;100.00;98363.59;4935625;29;20027;-73
2023/01/30 03:58:51;;;;;;;3.40;2.20;;;;;;;-0.13;100.00;98336.28;4935369;29;20505;-73
2023/01/30 04:01:17;;;;;;;3.17;2.20;;;;;;;-0.09;100.00;98348.06;4935465;29;20043;-73
2023/01/30 04:03:42;;;;;;;2.33;2.00;;;;;;;-0.08;100.00;98323.53;4935322;29;20024;-71
2023/01/30 04:06:08;;;;;;;2.90;2.60;;;;;;;-0.35;100.00;98275.66;4935604;29;20197;-71
2023/01/30 04:08:34;;;;;;;2.80;2.03;;;;;;;-0.05;100.00;98321.44;4918241;29;20042;-72
2023/01/30 04:10:59;;;;;;;2.97;2.67;;;;;;;-0.19;100.00;98279.34;4936479;29;20110;-73
2023/01/30 04:13:24;;;;;;;2.80;2.17;;;;;;;0.03;100.00;98304.97;4935247;29;20049;-70
2023/01/30 04:15:50;;;;;;;2.73;2.20;;;;;;;-0.06;100.00;98279.72;4935489;29;20027;-78
2023/01/30 04:18:16;;;;;;;4.83;2.50;;;;;;;-0.03;100.00;98274.19;4935466;29;20444;-77
2023/01/30 04:20:41;;;;;;;2.50;2.27;;;;;;;-0.03;100.00;98274.19;4916849;29;20028;-78
2023/01/30 04:23:06;;;;;;;4.07;1.90;;;;;;;-0.07;100.00;98257.16;4934967;29;20484;-73
2023/01/30 04:25:32;;;;;;;2.27;2.07;;;;;;;-0.04;100.00;98267.31;4934811;29;20065;-72
2023/01/30 04:27:58;;;;;;;2.73;2.47;;;;;;;-0.03;100.00;98256.69;4917627;29;20118;-71
2023/01/30 04:30:23;;;;;;;2.63;2.27;;;;;;;-0.02;100.00;98250.47;4934790;29;20036;-72
2023/01/30 04:32:49;;;;;;;3.07;2.10;;;;;;;-0.01;100.00;98231.19;4934278;29;20038;-71
2023/01/30 04:35:14;;;;;;;2.63;1.80;;;;;;;0.05;100.00;98240.22;4918125;29;20024;-71
2023/01/30 04:37:43;;;;;;;2.00;1.80;;;;;;;0.03;100.00;98231.72;4935599;29;20110;-71
2023/01/30 04:40:09;;;;;;;2.78;2.35;;;;;;;-0.02;100.00;98223.50;4935667;29;20436;-71
2023/01/30 04:42:34;;;;;;;4.60;2.43;;;;;;;0.00;100.00;98216.34;4940517;29;20091;-74
2023/01/30 04:45:00;;;;;;;2.20;2.00;;;;;;;-0.13;100.00;98189.78;4937729;29;20612;-71
2023/01/30 04:47:25;;;;;;;2.73;1.90;;;;;;;0.03;100.00;98202.94;4935028;29;20038;-71
2023/01/30 04:49:51;;;;;;;3.33;2.20;;;;;;;0.00;100.00;98190.16;4934875;29;20039;-71
2023/01/30 04:52:16;;;;;;;2.70;2.47;;;;;;;0.07;100.00;98185.13;4934655;29;20093;-72
2023/01/30 04:54:42;;;;;;;2.47;2.10;;;;;;;0.07;100.00;98178.06;4934501;29;20047;-70
2023/01/30 04:57:08;;;;;;;2.40;2.20;;;;;;;0.07;100.00;98175.47;4934338;29;20039;-70
2023/01/30 04:59:33;;;;;;;2.20;2.00;;;;;;;0.09;100.00;98173.50;4934823;29;20036;-72
2023/01/30 05:01:59;;;;;;;1.80;1.70;;;;;;;0.12;100.00;98167.94;4934537;29;20274;-71
2023/01/30 05:04:24;;;;;;;3.87;2.00;;;;;;;0.13;100.00;98164.34;4934542;29;20031;-71
2023/01/30 05:06:50;;;;;;;5.00;2.20;;;;;;;0.08;100.00;98147.50;4934461;29;20030;-70
2023/01/30 05:09:15;;;;;;;2.37;2.17;;;;;;;0.12;100.00;98149.63;4917159;29;20032;-72
2023/01/30 05:11:41;;;;;;;2.27;2.07;;;;;;;0.16;100.00;98156.19;4934594;29;20114;-72
2023/01/30 05:14:06;;;;;;;3.13;2.30;;;;;;;0.15;100.00;98149.31;4934512;29;20472;-70
2023/01/30 05:16:32;;;;;;;2.73;2.13;;;;;;;0.13;100.00;98140.78;4917540;29;20031;-70
2023/01/30 05:18:57;;;;;;;2.80;2.20;;;;;;;0.12;100.00;98125.25;4934312;29;20084;-72
2023/01/30 05:21:26;;;;;;;3.40;2.47;;;;;;;0.19;100.00;98123.63;4934180;29;20020;-71
2023/01/30 05:23:52;;;;;;;4.07;1.90;;;;;;;0.18;100.00;98125.44;4934163;29;20027;-71
2023/01/30 05:26:18;;;;;;;2.97;2.20;;;;;;;0.23;100.00;98117.91;4917102;29;20352;-67
2023/01/30 05:28:49;;;;;;;4.17;2.07;;;;;;;0.21;100.00;98111.19;4934656;29;20399;-69
2023/01/30 05:31:14;;;;;;;2.30;2.10;;;;;;;0.21;100.00;98112.00;4953403;29;20028;-67
2023/01/30 05:33:45;;;;;;;2.80;2.47;;;;;;;0.09;100.00;98095.00;4953306;29;20259;-67
2023/01/30 05:36:14;;;;;;;5.55;1.88;;;;;;;-0.08;100.00;98067.16;4951844;29;20282;-68
2023/01/30 05:38:41;;;;;;;6.57;2.90;;;;;;;0.19;100.00;98100.06;4913444;29;20044;-67
2023/01/30 05:41:07;;;;;;;5.00;1.87;;;;;;;0.22;100.00;98084.84;4934283;29;20262;-68
2023/01/30 05:43:34;;;;;;;1.90;1.80;;;;;;;0.24;100.00;98076.84;4935086;29;20338;-66
2023/01/30 05:46:01;;;;;;;3.73;2.13;;;;;;;0.23;100.00;98076.03;4937614;29;20110;-69
2023/01/30 05:48:27;;;;;;;2.50;2.30;;;;;;;0.24;100.00;98075.03;4937389;29;20329;-67
2023/01/30 05:50:55;;;;;;;2.43;2.23;;;;;;;0.27;100.00;98066.03;4937545;29;20351;-67
2023/01/30 05:53:23;;;;;;;2.72;1.92;;;;;;;0.24;100.00;98067.19;4938179;29;20362;-67
2023/01/30 05:56:01;;;;;;;2.90;2.43;;;;;;;0.28;100.00;98057.22;4938116;29;20489;-68
2023/01/30 05:58:28;;;;;;;4.03;2.30;;;;;;;0.25;100.00;98052.31;4921330;29;20338;-67
2023/01/30 06:00:58;;;;;;;3.43;2.30;;;;;;;0.27;100.00;98056.38;4937684;29;20786;-68
2023/01/30 06:03:24;;;;;;;4.63;2.47;;;;;;;0.25;100.00;98054.91;4938395;29;20271;-69
2023/01/30 06:05:49;;;;;;;3.83;2.83;;;;;;;0.32;100.00;98057.72;4921281;29;20290;-69
2023/01/30 06:08:14;;;;;;;4.97;2.30;;;;;;;0.31;100.00;98043.81;4938369;29;20040;-68
2023/01/30 06:10:40;;;;;;;4.20;2.70;;;;;;;0.30;100.00;98034.34;4938054;29;20030;-69
2023/01/30 06:13:05;;;;;;;2.77;2.13;;;;;;;0.35;100.00;98039.06;4937643;29;20027;-70
2023/01/30 06:15:32;;;;;;;3.63;1.83;;;;;;;0.32;100.00;98026.31;4933319;29;20637;-69
2023/01/30 06:17:57;;;;;;;3.47;2.00;;;;;;;0.35;100.00;98028.59;4938280;29;20043;-67
2023/01/30 06:20:22;;;;;;;3.00;2.10;;;;;;;0.40;100.00;98013.22;4936597;29;20252;-69
2023/01/30 06:22:48;;;;;;;2.73;1.90;;;;;;;0.43;100.00;98012.88;4938701;29;20031;-68
2023/01/30 06:25:14;;;;;;;4.70;1.90;;;;;;;0.38;100.00;98002.09;4921476;29;20058;-69
2023/01/30 06:27:39;;;;;;;2.30;2.03;;;;;;;0.37;100.00;97996.03;4937734;29;20130;-69
2023/01/30 06:30:05;;;;;;;3.60;2.10;;;;;;;0.32;100.00;97984.44;4937902;29;20480;-71
2023/01/30 06:32:31;;;;;;;2.33;1.77;;;;;;;0.11;100.00;97956.97;4937493;29;20039;-69
2023/01/30 06:34:56;;;;;;;3.23;2.93;;;;;;;0.23;100.00;97981.78;4936175;29;20268;-67
2023/01/30 06:37:22;;;;;;;2.30;2.10;;;;;;;0.24;100.00;97983.44;4937482;29;20114;-69
2023/01/30 06:39:47;;;;;;;4.07;2.10;;;;;;;0.28;100.00;97966.41;4938266;29;20078;-69
2023/01/30 06:42:12;;;;;;;6.33;2.27;;;;;;;0.33;100.00;97959.88;4938217;29;20048;-72
2023/01/30 06:44:38;;;;;;;3.77;2.57;;;;;;;0.38;100.00;97965.44;4921396;29;20032;-69
2023/01/30 06:47:03;;;;;;;7.77;2.70;;;;;;;0.40;100.00;97961.66;4938305;29;20110;-68
2023/01/30 06:49:29;;;;;;;2.40;2.03;;;;;;;0.39;100.00;97946.13;4937133;29;20040;-68
2023/01/30 06:51:54;;;;;;;2.53;1.90;;;;;;;0.43;100.00;97944.81;4922043;29;20028;-67
2023/01/30 06:54:22;;;;;;;3.27;2.10;;;;;;;0.45;100.00;97946.25;4939944;29;20091;-69
2023/01/30 06:56:47;;;;;;;2.87;2.10;;;;;;;0.48;100.00;97935.47;4922462;29;20267;-67
2023/01/30 06:59:14;;;;;;;17.10;2.60;;;;;;;0.48;100.00;97916.31;4940353;29;20051;-66
2023/01/30 07:01:40;;;;;;;5.43;2.07;;;;;;;0.55;100.00;97923.31;4939814;29;20361;-70
2023/01/30 07:04:05;;;;;;;2.43;2.23;;;;;;;0.62;100.00;97933.97;4940118;29;20351;-68
2023/01/30 07:06:31;;;;;;;5.20;2.30;;;;;;;0.65;100.00;97931.00;4922948;29;20098;-66
2023/01/30 07:08:57;;;;;;;6.27;1.97;;;;;;;0.66;100.00;97923.97;4940285;29;20055;-69
2023/01/30 07:11:24;;;;;;;2.80;2.07;;;;;;;0.61;100.00;97912.19;4939530;29;20031;-68
2023/01/30 07:13:51;;;;;;;1.80;1.70;;;;;;;0.62;100.00;97915.63;4936870;29;20252;-67
2023/01/30 07:16:16;;;;;;;1.90;1.70;;;;;;;0.66;100.00;97921.34;4936791;29;20266;-69
2023/01/30 07:18:42;;;;;;;2.87;2.00;;;;;;;0.67;100.00;97910.69;4936425;29;20271;-70
2023/01/30 07:21:07;;;;;;;3.60;2.20;;;;;;;0.67;100.00;97915.94;4939637;29;20031;-68
2023/01/30 07:23:34;;;;;;;1.90;1.80;;;;;;;0.74;100.00;97918.69;4936728;29;20055;-68
2023/01/30 07:26:06;;;;;;;2.27;2.07;;;;;;;0.77;100.00;97900.81;4938082;29;20103;-74
2023/01/30 07:28:32;;;;;;;2.53;1.90;;;;;;;0.87;100.00;97911.13;4940040;29;20287;-74
2023/01/30 07:31:09;;;;;;;3.40;2.27;;;;;;;0.86;100.00;97907.66;4946453;29;20300;-77
2023/01/30 07:33:35;;;;;;;2.03;1.80;;;;;;;0.82;100.00;97892.44;4937345;29;20035;-75
2023/01/30 07:36:01;;;;;;;2.07;1.87;;;;;;;0.81;100.00;97891.63;4937795;29;20266;-70
2023/01/30 07:38:26;;;;;;;3.60;2.40;;;;;;;0.81;100.00;97880.34;4938243;29;20084;-68
2023/01/30 07:40:56;;;;;;;3.83;2.17;;;;;;;0.87;100.00;97883.09;4936565;29;20085;-71
2023/01/30 07:43:22;;;;;;;2.07;1.90;;;;;;;0.85;100.00;97877.19;4936137;29;20055;-68
2023/01/30 07:45:48;;;;;;;3.73;2.03;;;;;;;0.92;100.00;97882.59;4935696;29;20347;-70
2023/01/30 07:48:16;;;;;;;1.87;1.77;;;;;;;0.84;100.00;97861.66;4935832;29;20054;-70
2023/01/30 07:50:42;;;;;;;3.45;1.90;;;;;;;0.90;100.00;97877.53;4936094;29;20111;-69
2023/01/30 07:53:10;;;;;;;3.37;1.70;;;;;;;0.89;100.00;97883.75;4935768;29;20086;-71
2023/01/30 07:55:39;;;;;;;2.20;2.00;;;;;;;0.91;100.00;97868.66;4935534;29;20311;-72
2023/01/30 07:58:05;;;;;;;2.63;2.10;;;;;;;0.92;100.00;97864.25;4935763;29;20047;-68
2023/01/30 08:00:31;;;;;;;2.80;1.80;;;;;;;0.70;100.00;97821.28;4935369;29;20074;-69
2023/01/30 08:02:57;;;;;;;2.57;2.10;;;;;;;0.97;100.00;97868.97;4935689;29;20291;-72
2023/01/30 08:05:23;;;;;;;3.40;2.33;;;;;;;0.67;100.00;97826.06;4935668;29;20055;-70
2023/01/30 08:07:48;;;;;;;2.47;2.27;;;;;;;0.89;100.00;97862.78;4934931;29;20038;-68
2023/01/30 08:10:14;;;;;;;2.27;1.90;;;;;;;0.85;100.00;97851.00;4935278;29;20487;-72
2023/01/30 08:12:40;;;;;;;2.10;1.90;;;;;;;0.83;100.00;97852.97;4935807;29;20126;-69
2023/01/30 08:15:08;;;;;;;5.73;3.00;;;;;;;0.89;100.00;97841.84;4937185;29;20126;-68
2023/01/30 08:17:33;;;;;;;3.40;2.30;;;;;;;0.95;100.00;97844.75;4936944;29;20024;-68
2023/01/30 08:19:58;;;;;;;3.27;2.70;;;;;;;0.98;100.00;97834.72;4937279;29;20582;-67
2023/01/30 08:22:24;;;;;;;2.67;2.20;;;;;;;1.04;100.00;97838.47;4935760;29;20032;-69
2023/01/30 08:24:49;;;;;;;2.67;2.20;;;;;;;1.00;100.00;97838.00;4935678;29;20119;-68
2023/01/30 08:27:15;;;;;;;4.10;2.13;;;;;;;0.99;100.00;97822.44;4935277;29;20036;-70
2023/01/30 08:29:41;;;;;;;5.77;2.20;;;;;;;1.05;100.00;97832.22;4935584;29;20027;-68
2023/01/30 08:32:06;;;;;;;2.77;1.90;;;;;;;1.02;100.00;97824.72;4935293;29;20110;-70
2023/01/30 08:34:32;;;;;;;3.03;2.00;;;;;;;1.02;100.00;97815.03;4939037;29;20027;-68
2023/01/30 08:36:57;;;;;;;3.43;2.97;;;;;;;0.97;100.00;97806.06;4939687;29;20123;-68
2023/01/30 08:39:23;;;;;;;5.47;2.00;;;;;;;1.12;100.00;97813.00;4937040;29;20028;-69
2023/01/30 08:41:48;;;;;;;2.37;2.00;;;;;;;1.12;100.00;97804.31;4938213;29;20139;-70
2023/01/30 08:44:14;;;;;;;4.93;2.33;;;;;;;1.12;100.00;97805.13;4938246;29;20042;-70
2023/01/30 08:46:39;;;;;;;4.87;2.10;;;;;;;1.16;100.00;97795.16;4939026;29;20086;-69
2023/01/30 08:49:05;;;;;;;2.60;2.40;;;;;;;1.13;100.00;97795.47;4937912;29;20035;-68
2023/01/30 08:51:32;;;;;;;2.67;2.17;;;;;;;1.16;100.00;97803.00;4936408;29;20118;-69
2023/01/30 08:53:58;;;;;;;4.20;2.13;;;;;;;1.15;100.00;97803.97;4935028;29;20526;-70
2023/01/30 08:56:28;;;;;;;2.10;1.90;;;;;;;1.09;100.00;97795.00;4918756;29;20268;-68
2023/01/30 08:58:55;;;;;;;2.80;1.97;;;;;;;1.10;100.00;97799.25;4934917;29;20275;-68
2023/01/30 09:01:21;;;;;;;3.03;2.20;;;;;;;1.09;100.00;97789.75;4934669;29;20122;-74
2023/01/30 09:03:46;;;;;;;4.10;2.50;;;;;;;1.05;100.00;97779.81;4935226;29;20791;-69
2023/01/30 09:06:12;;;;;;;4.37;2.50;;;;;;;1.11;100.00;97789.59;4934783;29;20487;-68
2023/01/30 09:08:37;;;;;;;3.17;2.27;;;;;;;1.05;100.00;97777.19;4917207;29;20039;-66
2023/01/30 09:11:04;;;;;;;3.37;2.27;;;;;;;1.07;100.00;97773.41;4934925;29;20046;-67
2023/01/30 09:13:31;;;;;;;2.83;1.93;;;;;;;1.07;100.00;97772.59;4934946;29;20039;-67
2023/01/30 09:15:57;;;;;;;2.63;2.33;;;;;;;1.04;100.00;97765.06;4935252;29;20270;-68
2023/01/30 09:18:24;;;;;;;1.90;1.70;;;;;;;1.03;100.00;97764.25;4938452;29;20350;-70
2023/01/30 09:20:49;;;;;;;4.23;3.37;;;;;;;1.03;100.00;97768.69;4921880;29;20323;-66
2023/01/30 09:23:15;;;;;;;3.03;2.60;;;;;;;1.08;100.00;97771.59;4938599;29;20652;-68
2023/01/30 09:25:43;;;;;;;3.50;1.93;;;;;;;1.07;100.00;97764.72;4922384;29;20420;-66
2023/01/30 09:28:08;;;;;;;1.87;1.70;;;;;;;1.07;100.00;97751.63;4939919;29;20031;-70
2023/01/30 09:30:33;;;;;;;2.27;1.90;;;;;;;1.15;100.00;97762.84;4939431;29;20748;-70
2023/01/30 09:32:59;;;;;;;2.53;2.33;;;;;;;1.13;100.00;97756.16;4939966;29;20038;-68
2023/01/30 09:35:24;;;;;;;1.93;1.77;;;;;;;1.07;100.00;97744.56;4939757;29;20027;-70
2023/01/30 09:37:52;;;;;;;2.50;2.23;;;;;;;1.12;100.00;97746.66;4943067;29;20119;-71
2023/01/30 09:40:22;;;;;;;5.30;2.30;;;;;;;1.15;100.00;97741.06;4950094;29;20032;-71
2023/01/30 09:42:47;;;;;;;2.77;2.13;;;;;;;1.17;100.00;97749.59;4938984;29;20274;-68
2023/01/30 09:45:21;;;;;;;3.13;2.30;;;;;;;1.12;100.00;97736.16;4939795;29;20247;-70
2023/01/30 09:48:02;;;;;;;2.63;2.00;;;;;;;1.10;100.00;97738.97;4940600;29;20072;-69
2023/01/30 09:50:40;;;;;;;3.83;1.77;;;;;;;1.07;100.00;97728.03;4940101;29;20727;-69
2023/01/30 09:53:33;;;;;;;2.33;2.13;;;;;;;1.08;100.00;97735.72;4941564;29;20263;-67
2023/01/30 09:56:00;;;;;;;3.47;1.87;;;;;;;1.08;100.00;97742.75;4941850;29;20260;-66
2023/01/30 09:58:41;;;;;;;4.00;1.90;;;;;;;1.13;100.00;97729.94;4940682;29;20291;-67
2023/01/30 10:01:16;;;;;;;3.10;2.27;;;;;;;1.11;100.00;97717.00;4938394;29;20275;-68
2023/01/30 10:04:09;;;;;;;2.47;2.23;;;;;;;1.15;100.00;97715.66;4939069;29;20769;-71
2023/01/30 10:06:47;;;;;;;2.70;2.10;;;;;;;1.18;100.00;97723.19;4939351;29;20766;-69
2023/01/30 10:09:32;;;;;;;3.20;2.00;;;;;;;1.18;100.00;97720.56;4940024;29;20294;-69
2023/01/30 10:12:33;;;;;;;2.70;1.93;;;;;;;1.15;100.00;97715.66;4939249;29;20386;-68
2023/01/30 10:15:22;;;;;;;2.47;1.97;;;;;;;1.18;100.00;97711.91;4937895;29;20276;-69
2023/01/30 10:18:14;;;;;;;5.50;2.80;;;;;;;1.06;100.00;97701.00;4937931;29;20266;-68
2023/01/30 10:20:59;;;;;;;3.77;2.33;;;;;;;1.15;100.00;97701.75;4937706;29;20259;-68
2023/01/30 10:23:43;;;;;;;3.47;2.70;;;;;;;1.11;100.00;97701.28;4937898;29;20263;-70
2023/01/30 10:26:21;;;;;;;3.57;2.20;;;;;;;1.11;100.00;97697.84;4937535;29;20407;-70
2023/01/30 10:29:07;;;;;;;5.77;2.73;;;;;;;1.12;100.00;97691.63;4937494;29;20298;-68
2023/01/30 10:31:42;;;;;;;3.97;2.40;;;;;;;1.08;100.00;97701.66;4936784;29;20814;-69
2023/01/30 10:34:18;;;;;;;4.43;2.50;;;;;;;1.08;100.00;97698.22;4938788;29;20318;-68
2023/01/30 10:36:58;;;;;;;3.77;2.93;;;;;;;1.07;100.00;97691.34;4939997;29;20403;-70
2023/01/30 10:39:33;;;;;;;3.73;2.40;;;;;;;1.07;100.00;97688.72;4937855;29;20318;-69
2023/01/30 10:42:06;;;;;;;3.03;2.60;;;;;;;1.05;100.00;97680.22;4939713;29;20256;-67
2023/01/30 10:44:33;;;;;;;2.47;2.07;;;;;;;1.02;100.00;97678.78;4938954;29;20267;-67
2023/01/30 10:47:40;;;;;;;3.80;2.40;;;;;;;0.98;100.00;97646.06;4921180;29;20267;-68
2023/01/30 10:50:20;;;;;;;4.63;3.00;;;;;;;1.09;100.00;97663.16;4936786;29;20751;-68
2023/01/30 10:53:01;;;;;;;3.33;2.67;;;;;;;1.14;100.00;97663.41;4937277;29;20264;-69
2023/01/30 10:55:29;;;;;;;3.63;2.67;;;;;;;1.14;100.00;97666.03;4937687;29;20657;-68
2023/01/30 10:58:15;;;;;;;4.97;3.30;;;;;;;1.15;100.00;97662.44;4937815;29;20291;-67
2023/01/30 11:00:55;;;;;;;3.87;1.90;;;;;;;1.07;100.00;97647.59;4937293;29;20122;-69
2023/01/30 11:03:28;;;;;;;6.17;3.70;;;;;;;1.12;100.00;97647.06;4937193;29;20282;-69
2023/01/30 11:06:22;;;;;;;4.87;3.30;;;;;;;1.09;100.00;97652.66;4937462;29;20291;-69
2023/01/30 11:08:49;;;;;;;3.80;2.40;;;;;;;1.06;100.00;97642.53;4905012;29;20306;-69
2023/01/30 11:11:32;;;;;;;3.13;2.03;;;;;;;1.09;100.00;97650.03;4938045;29;20671;-67
2023/01/30 11:14:08;;;;;;;2.97;2.17;;;;;;;1.12;100.00;97652.31;4922779;29;20279;-67
2023/01/30 11:16:49;;;;;;;3.90;2.30;;;;;;;1.09;100.00;97647.41;4920447;29;20295;-67
2023/01/30 11:19:18;;;;;;;4.90;2.03;;;;;;;1.08;100.00;97641.38;4938131;29;20271;-70
2023/01/30 11:21:50;;;;;;;;;;;;;;;1.09;100.00;97637.75;4937181;29;20263;-69
2023/01/30 11:24:18;;;;;;;4.67;2.00;;;;;;;1.02;100.00;97636.03;4936967;29;19911;-68
2023/01/30 11:26:44;;;;;;;2.72;1.85;;;;;;;0.93;100.00;97628.25;4936580;29;20425;-68
2023/01/30 11:29:32;;;;;;;4.40;1.93;;;;;;;0.84;100.00;97616.19;4936842;29;20147;-68
2023/01/30 11:32:10;;;;;;;2.40;1.93;;;;;;;0.84;100.00;97618.81;4937718;29;20251;-69
2023/01/30 11:34:37;;;;;;;6.20;2.63;;;;;;;0.97;100.00;97644.44;4936463;29;20298;-68
2023/01/30 11:37:14;;;;;;;3.07;2.23;;;;;;;0.92;100.00;97624.00;4919298;29;20431;-69
2023/01/30 11:39:51;;;;;;;6.10;2.00;;;;;;;0.96;100.00;97634.13;4936744;29;20259;-69
2023/01/30 11:42:19;;;;;;;4.43;3.03;;;;;;;0.97;100.00;97627.91;4936467;29;20624;-68
2023/01/30 11:44:45;;;;;;;7.20;2.42;;;;;;;0.93;100.00;97628.25;4936654;29;20290;-68
2023/01/30 11:47:25;;;;;;;5.37;1.93;;;;;;;0.90;100.00;97612.06;4936681;29;20480;-69